Time;durP1;ratioP1;P1;durP2;ratioP2;P2;SDS_P1;SDS_P2;PMS_P1;PMS_P2;Temp;Humidity;BMP_temperature;BMP_pressure;BME280_temperature;BME280_humidity;BME280_pressure;Samples;Min_cycle;Max_cycle;Signal;HPM_P1;HPM_P2
2021/10/28 00:12:33;;;;;;;14.25;9.35;;;8.90;82.60;;;;;;5051481;28;20032;-76
2021/10/28 00:15:03;;;;;;;14.20;9.82;;;8.80;82.80;;;;;;5048556;28;20033;-76
2021/10/28 00:20:35;;;;;;;16.45;9.82;;;8.80;83.30;;;;;;4989068;28;20182;-75
2021/10/28 00:23:03;;;;;;;13.45;8.25;;;8.80;83.20;;;;;;4985374;28;20058;-76
2021/10/28 00:25:30;;;;;;;11.70;8.40;;;8.70;83.10;;;;;;4979482;28;20409;-76
2021/10/28 00:27:56;;;;;;;12.00;8.05;;;8.80;82.90;;;;;;4979787;28;20037;-76
2021/10/28 00:30:21;;;;;;;14.82;8.07;;;8.70;82.70;;;;;;4978586;28;20149;-76
2021/10/28 00:32:48;;;;;;;13.82;8.23;;;8.70;82.40;;;;;;4986440;28;20137;-76
2021/10/28 00:35:14;;;;;;;12.63;7.95;;;8.60;82.20;;;;;;4988686;28;20042;-76
2021/10/28 00:37:41;;;;;;;15.73;8.57;;;8.70;82.10;;;;;;4987281;28;20043;-75
2021/10/28 00:40:08;;;;;;;15.18;8.73;;;8.60;81.90;;;;;;4987484;28;20061;-77
2021/10/28 00:42:37;;;;;;;15.43;9.55;;;8.60;81.80;;;;;;4989049;28;20034;-76
2021/10/28 00:45:05;;;;;;;17.58;10.25;;;8.60;81.90;;;;;;4986704;28;20049;-76
2021/10/28 00:47:33;;;;;;;17.05;9.68;;;8.60;82.20;;;;;;4986281;28;20085;-76
2021/10/28 00:50:03;;;;;;;14.82;8.90;;;8.60;82.60;;;;;;4988233;28;20034;-76
2021/10/28 00:52:29;;;;;;;26.60;8.80;;;8.60;82.50;;;;;;5047568;28;20044;-76
2021/10/28 00:54:55;;;;;;;25.85;9.10;;;8.50;82.50;;;;;;5049042;28;20025;-76
2021/10/28 00:57:21;;;;;;;14.20;9.32;;;8.50;82.80;;;;;;5048569;28;20028;-76
2021/10/28 00:59:46;;;;;;;14.82;9.10;;;8.60;82.80;;;;;;5048347;28;20083;-76
2021/10/28 01:02:14;;;;;;;13.35;8.35;;;8.50;82.80;;;;;;5049382;28;20033;-76
2021/10/28 01:04:40;;;;;;;14.43;8.80;;;8.50;82.80;;;;;;5049811;28;20036;-76
2021/10/28 01:07:06;;;;;;;12.75;7.95;;;8.50;82.80;;;;;;5049204;28;20036;-76
2021/10/28 01:09:31;;;;;;;12.45;7.78;;;8.50;82.80;;;;;;5048972;28;20024;-76
2021/10/28 01:11:57;;;;;;;12.70;8.60;;;8.40;82.90;;;;;;5049786;28;20116;-76
2021/10/28 01:14:23;;;;;;;13.00;8.32;;;8.40;82.90;;;;;;5047848;28;20108;-75
2021/10/28 01:16:54;;;;;;;12.73;7.75;;;8.40;82.90;;;;;;5049447;28;20082;-76
2021/10/28 01:19:23;;;;;;;14.55;8.02;;;8.40;82.90;;;;;;5049439;28;20021;-76
2021/10/28 01:21:52;;;;;;;15.27;8.98;;;8.40;82.80;;;;;;5048451;28;20047;-75
2021/10/28 01:24:18;;;;;;;13.35;8.10;;;8.30;82.70;;;;;;5049775;28;20058;-76
2021/10/28 01:26:44;;;;;;;12.02;8.00;;;8.30;83.10;;;;;;5048358;28;20453;-76
2021/10/28 01:29:11;;;;;;;12.45;8.20;;;8.40;83.20;;;;;;5046554;28;20387;-76
2021/10/28 01:31:37;;;;;;;15.23;8.40;;;8.40;83.20;;;;;;5048186;28;20392;-76
2021/10/28 01:34:05;;;;;;;12.52;7.40;;;8.40;83.30;;;;;;5049323;28;20045;-76
2021/10/28 01:36:32;;;;;;;11.93;7.63;;;8.40;83.20;;;;;;5050033;28;20163;-76
2021/10/28 01:38:59;;;;;;;13.10;7.78;;;8.30;83.00;;;;;;5049037;28;20170;-76
2021/10/28 01:41:28;;;;;;;11.70;7.82;;;8.30;82.90;;;;;;5047469;28;20035;-76
2021/10/28 01:43:55;;;;;;;11.40;7.32;;;8.30;82.80;;;;;;5049745;28;20025;-76
2021/10/28 01:46:22;;;;;;;12.25;7.60;;;8.30;82.70;;;;;;5048672;28;20416;-76
2021/10/28 01:48:49;;;;;;;10.88;6.32;;;8.30;82.80;;;;;;5050096;28;20043;-76
2021/10/28 01:51:21;;;;;;;10.13;6.20;;;8.20;82.80;;;;;;5048821;28;20039;-76
2021/10/28 01:53:47;;;;;;;14.25;7.07;;;8.30;82.80;;;;;;5047465;28;20025;-76
2021/10/28 01:56:13;;;;;;;16.92;7.32;;;8.20;82.40;;;;;;5048008;28;20060;-76
2021/10/28 01:58:39;;;;;;;13.13;6.60;;;8.20;82.50;;;;;;5047775;28;20404;-76
2021/10/28 02:01:06;;;;;;;13.27;7.25;;;8.20;82.50;;;;;;5047954;28;20056;-76
2021/10/28 02:03:33;;;;;;;11.50;8.32;;;8.10;82.30;;;;;;5049639;28;20191;-76
2021/10/28 02:06:00;;;;;;;12.27;8.10;;;8.10;82.80;;;;;;5048658;28;20598;-76
2021/10/28 02:08:26;;;;;;;12.43;7.93;;;8.10;83.30;;;;;;5047993;28;20036;-76
2021/10/28 02:10:53;;;;;;;12.43;7.90;;;8.00;83.70;;;;;;5048597;28;20024;-76
2021/10/28 02:13:20;;;;;;;13.00;9.02;;;8.00;83.90;;;;;;5048949;28;20029;-76
2021/10/28 02:15:46;;;;;;;12.80;8.98;;;8.00;83.90;;;;;;5047429;28;20035;-76
2021/10/28 02:18:12;;;;;;;14.55;8.10;;;8.00;84.10;;;;;;5046883;28;20585;-76
2021/10/28 02:20:39;;;;;;;15.10;9.38;;;7.90;83.90;;;;;;5047493;28;20064;-76
2021/10/28 02:23:09;;;;;;;12.30;8.82;;;7.90;83.80;;;;;;5031705;28;20056;-76
2021/10/28 02:25:41;;;;;;;12.93;8.73;;;7.90;84.00;;;;;;5060071;28;20122;-76
2021/10/28 02:28:19;;;;;;;14.07;8.48;;;7.90;83.90;;;;;;5049609;28;20064;-76
2021/10/28 02:30:52;;;;;;;13.13;8.82;;;7.90;83.70;;;;;;5035250;28;20140;-76
2021/10/28 02:33:21;;;;;;;18.25;9.43;;;7.90;83.60;;;;;;5048366;28;20075;-76
2021/10/28 02:35:51;;;;;;;15.07;8.93;;;7.90;83.60;;;;;;5049205;28;20036;-76
2021/10/28 02:38:19;;;;;;;15.88;9.43;;;7.80;83.50;;;;;;5039718;28;20028;-76
2021/10/28 02:40:49;;;;;;;13.65;8.93;;;7.80;84.00;;;;;;5049068;28;20424;-76
2021/10/28 02:43:19;;;;;;;14.07;8.85;;;7.80;83.80;;;;;;5043076;28;20048;-76
2021/10/28 02:45:48;;;;;;;14.00;8.82;;;7.80;83.70;;;;;;5050714;28;20029;-77
2021/10/28 02:48:20;;;;;;;13.05;8.57;;;7.70;83.60;;;;;;5048674;28;20041;-76
2021/10/28 02:50:50;;;;;;;15.23;8.77;;;7.70;83.60;;;;;;5043122;28;20094;-76
2021/10/28 02:53:20;;;;;;;17.85;9.27;;;7.70;83.70;;;;;;5045138;28;20079;-76
2021/10/28 02:55:55;;;;;;;15.48;9.32;;;7.70;83.80;;;;;;5049278;28;20047;-76
2021/10/28 02:58:21;;;;;;;13.65;9.18;;;7.70;83.80;;;;;;5048427;28;20044;-76
2021/10/28 03:00:48;;;;;;;14.73;8.75;;;7.70;83.80;;;;;;5046344;28;20036;-76
2021/10/28 03:03:21;;;;;;;14.50;7.97;;;7.70;83.90;;;;;;5049033;28;20021;-76
2021/10/28 03:05:46;;;;;;;9.65;6.57;;;7.70;83.90;;;;;;5048303;28;20037;-76
2021/10/28 03:08:13;;;;;;;10.63;7.20;;;7.70;83.90;;;;;;5046196;28;20404;-76
2021/10/28 03:10:41;;;;;;;17.13;8.00;;;7.70;83.80;;;;;;5046516;28;20017;-77
2021/10/28 03:13:07;;;;;;;19.85;7.57;;;7.70;83.80;;;;;;5045589;28;20446;-76
2021/10/28 03:15:36;;;;;;;11.07;7.60;;;7.70;83.70;;;;;;5046948;28;20032;-76
2021/10/28 03:26:00;;;;;;;16.05;8.20;;;7.60;83.30;;;;;;5045703;28;20473;-76
2021/10/28 03:28:26;;;;;;;13.65;8.57;;;7.60;83.40;;;;;;5046378;28;20487;-76
2021/10/28 03:30:52;;;;;;;12.95;7.85;;;7.50;83.20;;;;;;5046368;28;21476;-76
2021/10/28 03:33:21;;;;;;;13.80;7.78;;;7.50;83.20;;;;;;5046037;28;20511;-76
2021/10/28 03:35:47;;;;;;;15.68;8.70;;;7.50;83.10;;;;;;5042832;28;20115;-76
2021/10/28 03:55:25;;;;;;;15.40;9.02;;;7.30;83.50;;;;;;4990828;28;20038;-77
2021/10/28 04:21:03;;;;;;;16.05;9.55;;;7.10;84.60;;;;;;4989640;28;20501;-77
2021/10/28 04:29:04;;;;;;;14.32;8.85;;;7.20;85.00;;;;;;4991208;28;20033;-77
2021/10/28 04:31:35;;;;;;;14.25;8.65;;;7.10;85.00;;;;;;5028133;28;20037;-76
2021/10/28 04:34:08;;;;;;;16.70;9.57;;;7.20;85.10;;;;;;5053335;28;20075;-76
2021/10/28 04:36:34;;;;;;;21.75;9.63;;;7.10;85.00;;;;;;5052310;28;20033;-76
2021/10/28 04:39:03;;;;;;;13.40;9.55;;;7.10;84.90;;;;;;5052253;28;20066;-77
2021/10/28 04:41:29;;;;;;;16.95;9.00;;;7.10;85.00;;;;;;5052758;28;20433;-77
2021/10/28 04:43:55;;;;;;;15.50;10.25;;;7.10;84.90;;;;;;5054565;28;20017;-84
2021/10/28 04:46:21;;;;;;;15.52;9.85;;;7.10;85.00;;;;;;5057304;28;20034;-83
2021/10/28 04:48:47;;;;;;;16.23;9.75;;;7.20;85.70;;;;;;5056907;28;20382;-82
2021/10/28 04:51:13;;;;;;;15.38;9.52;;;7.10;86.00;;;;;;5055813;28;20127;-77
2021/10/28 04:53:39;;;;;;;15.77;9.98;;;7.10;86.40;;;;;;5035032;28;20043;-77
2021/10/28 04:56:05;;;;;;;17.88;11.10;;;7.20;87.50;;;;;;5032653;28;20396;-76
2021/10/28 04:58:31;;;;;;;16.85;10.77;;;7.10;88.40;;;;;;5047688;28;20063;-77
2021/10/28 05:00:57;;;;;;;19.55;11.13;;;7.10;88.10;;;;;;5041746;28;20460;-78
2021/10/28 05:03:23;;;;;;;15.45;10.15;;;7.10;88.50;;;;;;5041401;28;20044;-78
2021/10/28 05:05:49;;;;;;;17.55;11.43;;;7.10;89.60;;;;;;5039919;28;20033;-76
2021/10/28 05:08:14;;;;;;;25.23;13.10;;;7.10;90.20;;;;;;5045297;28;20031;-78
2021/10/28 05:10:44;;;;;;;19.52;11.30;;;7.20;90.50;;;;;;5049242;28;20392;-77
2021/10/28 05:13:15;;;;;;;19.67;11.77;;;7.20;90.50;;;;;;5050686;28;20392;-76
2021/10/28 05:15:51;;;;;;;19.23;11.82;;;7.20;90.60;;;;;;5052233;28;20305;-76
2021/10/28 05:18:21;;;;;;;20.90;12.98;;;7.20;90.70;;;;;;5041386;28;20017;-77
2021/10/28 05:20:47;;;;;;;20.73;12.32;;;7.30;90.70;;;;;;5050697;28;20392;-77
2021/10/28 05:23:13;;;;;;;24.48;13.40;;;7.30;91.00;;;;;;5047180;28;20027;-76
2021/10/28 05:25:39;;;;;;;22.90;13.05;;;7.30;90.80;;;;;;5049337;28;20033;-79
2021/10/28 05:28:05;;;;;;;28.80;13.65;;;7.30;90.80;;;;;;5050060;28;20028;-78
2021/10/28 05:30:31;;;;;;;22.08;13.35;;;7.30;90.70;;;;;;5051871;28;20095;-79
2021/10/28 05:32:58;;;;;;;20.23;12.52;;;7.30;90.60;;;;;;5047152;28;20056;-78
2021/10/28 05:35:25;;;;;;;21.02;13.82;;;7.30;90.70;;;;;;5043306;28;20088;-79
2021/10/28 05:37:51;;;;;;;22.73;13.75;;;7.30;90.70;;;;;;5053122;28;20384;-80
2021/10/28 05:40:17;;;;;;;21.77;13.13;;;7.30;90.50;;;;;;5029599;28;20446;-82
2021/10/28 05:42:46;;;;;;;24.35;13.45;;;7.30;90.60;;;;;;5054831;28;20059;-78
2021/10/28 05:45:12;;;;;;;17.90;11.48;;;7.30;90.50;;;;;;5045156;28;20492;-78
2021/10/28 05:47:37;;;;;;;18.15;12.48;;;7.30;90.40;;;;;;5054939;28;20104;-78
2021/10/28 05:50:09;;;;;;;18.35;11.80;;;7.30;90.20;;;;;;5056540;28;20543;-78
2021/10/28 05:52:35;;;;;;;16.38;10.20;;;7.20;90.10;;;;;;5052250;28;20434;-85
2021/10/28 05:55:04;;;;;;;17.98;11.40;;;7.20;90.00;;;;;;5053439;28;20045;-81
2021/10/28 05:57:31;;;;;;;14.93;10.57;;;7.20;90.00;;;;;;5056841;28;20090;-84
2021/10/28 05:59:57;;;;;;;27.95;11.20;;;7.20;89.90;;;;;;5062006;28;20032;-86
2021/10/28 06:02:23;;;;;;;15.13;9.35;;;7.10;89.70;;;;;;5058474;28;20022;-81
2021/10/28 06:04:49;;;;;;;30.58;11.23;;;7.10;89.60;;;;;;5051245;28;20040;-79
2021/10/28 06:07:15;;;;;;;20.30;11.10;;;7.10;89.50;;;;;;5050581;28;20553;-77
2021/10/28 06:09:40;;;;;;;21.63;12.10;;;7.10;89.50;;;;;;5049170;28;20032;-78
2021/10/28 06:12:08;;;;;;;20.20;11.23;;;7.10;89.30;;;;;;5049141;28;20029;-81
2021/10/28 06:14:33;;;;;;;16.65;10.45;;;7.00;89.20;;;;;;5050156;28;20507;-79
2021/10/28 06:17:08;;;;;;;15.35;10.20;;;7.00;89.10;;;;;;5048746;28;20044;-80
2021/10/28 06:19:34;;;;;;;18.08;11.40;;;7.00;88.90;;;;;;5036617;28;20452;-80
2021/10/28 06:22:00;;;;;;;19.60;10.95;;;7.00;88.90;;;;;;5047061;28;20033;-80
2021/10/28 06:24:27;;;;;;;18.88;12.20;;;7.00;88.80;;;;;;5049976;28;20515;-80
2021/10/28 06:26:53;;;;;;;18.05;11.90;;;6.90;88.70;;;;;;5049719;28;20124;-81
2021/10/28 06:29:19;;;;;;;19.10;11.68;;;7.00;89.50;;;;;;5047638;28;20049;-81
2021/10/28 06:31:46;;;;;;;22.00;12.52;;;7.00;90.20;;;;;;5040185;28;20033;-79
2021/10/28 06:34:18;;;;;;;21.08;12.98;;;7.00;90.70;;;;;;5049187;28;20060;-81
2021/10/28 06:36:47;;;;;;;27.73;14.70;;;7.10;91.20;;;;;;5042363;28;20030;-80
2021/10/28 06:39:15;;;;;;;23.92;14.05;;;7.10;91.70;;;;;;5048162;28;20059;-79
2021/10/28 06:41:42;;;;;;;24.40;14.20;;;7.20;91.60;;;;;;5048830;28;20083;-79
2021/10/28 06:44:07;;;;;;;23.90;14.10;;;7.20;91.40;;;;;;5049380;28;20017;-80
2021/10/28 06:46:33;;;;;;;25.35;14.50;;;7.20;91.70;;;;;;5048815;28;20060;-80
2021/10/28 06:49:03;;;;;;;23.65;13.00;;;7.30;91.50;;;;;;5041543;28;20036;-80
2021/10/28 06:51:31;;;;;;;26.25;13.82;;;7.30;91.30;;;;;;5038028;28;20025;-79
2021/10/28 06:54:06;;;;;;;19.67;13.55;;;7.30;91.30;;;;;;5045308;28;20032;-79
2021/10/28 06:56:55;;;;;;;26.33;14.55;;;7.40;91.30;;;;;;5043912;28;20028;-79
2021/10/28 07:04:44;;;;;;;20.58;13.68;;;7.40;90.50;;;;;;5048778;28;20030;-82
2021/10/28 07:07:09;;;;;;;23.63;13.20;;;7.60;90.20;;;;;;5033817;28;20036;-82
2021/10/28 07:09:38;;;;;;;22.40;12.90;;;8.10;89.20;;;;;;5035022;28;20025;-83
2021/10/28 07:14:52;;;;;;;17.77;10.93;;;9.20;85.70;;;;;;5048408;28;20101;-81
2021/10/28 07:17:28;;;;;;;17.08;11.13;;;9.70;83.70;;;;;;5043743;28;20483;-81
2021/10/28 07:22:37;;;;;;;15.70;9.10;;;10.80;80.20;;;;;;5038475;28;20027;-81
2021/10/28 07:30:45;;;;;;;14.13;7.75;;;12.50;75.20;;;;;;5052970;28;20519;-81
2021/10/28 07:33:26;;;;;;;11.77;7.65;;;13.00;73.50;;;;;;5048117;28;20032;-82
2021/10/28 07:57:43;;;;;;;10.13;6.10;;;17.90;58.00;;;;;;5053132;28;20052;-81
2021/10/28 08:05:42;;;;;;;11.60;6.97;;;19.00;54.00;;;;;;5042667;28;20043;-79
2021/10/28 08:24:00;;;;;;;8.85;5.63;;;22.70;45.50;;;;;;5048895;28;20036;-79
2021/10/28 08:29:24;;;;;;;12.20;6.87;;;23.20;44.00;;;;;;4988843;28;20121;-80
2021/10/28 08:31:51;;;;;;;11.77;8.05;;;23.60;43.20;;;;;;4988960;28;20034;-79
2021/10/28 08:34:37;;;;;;;11.52;7.72;;;24.00;42.00;;;;;;4989123;28;20062;-79
2021/10/28 08:39:44;;;;;;;11.82;7.50;;;24.80;39.60;;;;;;4991495;28;20038;-79
2021/10/28 08:42:11;;;;;;;;;;;25.10;39.50;;;;;;4990044;28;20584;-78
2021/10/28 08:44:50;;;;;;;14.85;10.70;;;25.60;38.80;;;;;;4989575;28;19910;-79
2021/10/28 08:47:17;;;;;;;16.90;10.25;;;25.90;37.50;;;;;;4989381;28;20047;-79
2021/10/28 08:49:48;;;;;;;16.30;11.48;;;25.60;37.30;;;;;;4988660;28;20050;-80
2021/10/28 09:26:57;;;;;;;20.65;19.00;;;28.80;31.50;;;;;;5030227;28;20103;-74
2021/10/28 09:32:04;;;;;;;34.08;31.55;;;29.80;30.30;;;;;;5031827;28;20033;-74
2021/10/28 09:51:14;;;;;;;16.30;11.57;;;26.30;34.10;;;;;;5035777;28;20033;-76
2021/10/28 09:59:31;;;;;;;9.82;4.80;;;27.60;34.10;;;;;;5046060;28;20035;-78
2021/10/28 10:02:09;;;;;;;12.85;10.32;;;29.60;32.40;;;;;;5047689;28;20036;-78
2021/10/28 10:04:36;;;;;;;12.20;10.95;;;30.90;29.80;;;;;;5043236;28;20496;-73
2021/10/28 10:07:03;;;;;;;15.15;13.82;;;31.90;28.60;;;;;;5044252;28;20083;-77
2021/10/28 10:09:34;;;;;;;12.27;11.27;;;32.10;28.00;;;;;;5043086;28;20078;-78
2021/10/28 10:12:00;;;;;;;15.20;13.90;;;32.30;27.80;;;;;;5040938;28;20033;-74
2021/10/28 10:14:26;;;;;;;12.50;11.40;;;32.80;27.20;;;;;;5034873;28;20029;-74
2021/10/28 10:16:52;;;;;;;10.30;9.38;;;33.50;26.60;;;;;;5034490;28;20029;-76
2021/10/28 10:19:29;;;;;;;10.52;6.50;;;33.60;26.00;;;;;;5047205;28;20086;-73
2021/10/28 10:21:55;;;;;;;11.13;5.90;;;34.30;25.80;;;;;;5047123;28;20488;-73
2021/10/28 11:27:48;;;;;;;7.43;4.00;;;40.40;19.90;;;;;;5037496;28;20048;-74
2021/10/28 12:27:53;;;;;;;4.75;2.70;;;41.70;18.20;;;;;;4985908;28;20388;-75
2021/10/28 13:28:00;;;;;;;5.63;1.83;;;39.30;19.40;;;;;;4956244;28;20023;-71
2021/10/28 13:51:40;;;;;;;5.65;2.20;;;34.30;23.40;;;;;;5049037;28;20071;-70
2021/10/28 13:54:30;;;;;;;4.18;1.98;;;34.50;23.30;;;;;;5049049;28;20063;-70
2021/10/28 14:58:51;;;;;;;7.65;2.47;;;32.60;24.40;;;;;;5009027;28;20112;-67
2021/10/28 15:00:25;;;;;;;5.65;2.75;;;29.00;28.70;;;;;;5007093;28;20098;-67
2021/10/28 15:29:59;;;;;;;7.05;2.90;;;23.10;40.20;;;;;;5035242;28;20040;-67
2021/10/28 15:35:32;;;;;;;5.85;3.47;;;22.20;42.90;;;;;;5045221;28;20047;-67
2021/10/28 16:23:30;;;;;;;7.07;3.60;;;19.40;52.70;;;;;;5045199;28;20125;-68
2021/10/28 16:25:55;;;;;;;7.88;3.08;;;19.30;53.10;;;;;;5051970;28;20463;-68
2021/10/28 16:28:21;;;;;;;6.50;2.95;;;19.20;53.60;;;;;;5051880;28;20033;-68
2021/10/28 16:30:48;;;;;;;6.88;3.40;;;19.10;53.90;;;;;;5053173;28;20029;-68
2021/10/28 16:33:14;;;;;;;7.47;3.75;;;19.00;54.20;;;;;;5041775;28;20038;-68
2021/10/28 16:35:41;;;;;;;6.20;3.30;;;18.90;54.20;;;;;;5045883;28;20496;-68
2021/10/28 16:38:08;;;;;;;6.75;3.58;;;18.90;54.70;;;;;;5051943;28;20559;-68
2021/10/28 16:40:35;;;;;;;8.25;3.40;;;18.70;55.10;;;;;;5051654;28;20033;-68
2021/10/28 16:43:00;;;;;;;8.38;3.60;;;18.70;55.10;;;;;;5051721;28;20017;-68
2021/10/28 16:45:26;;;;;;;6.47;3.55;;;18.60;55.50;;;;;;5045463;28;20032;-68
2021/10/28 16:47:52;;;;;;;12.10;3.45;;;18.50;55.80;;;;;;5049255;28;20391;-68
2021/10/28 16:50:18;;;;;;;8.38;4.22;;;18.40;56.20;;;;;;5046111;28;20032;-68
2021/10/28 16:52:43;;;;;;;8.23;3.50;;;18.30;56.50;;;;;;5044197;28;20032;-69
2021/10/28 16:55:09;;;;;;;7.85;3.67;;;18.30;56.70;;;;;;5050488;28;20063;-69
2021/10/28 16:57:36;;;;;;;9.73;3.50;;;18.20;57.00;;;;;;5046262;28;20044;-68
2021/10/28 17:00:05;;;;;;;9.20;3.47;;;18.10;57.20;;;;;;5048397;28;20032;-68
2021/10/28 17:02:33;;;;;;;6.22;3.70;;;18.00;57.30;;;;;;5045542;28;20116;-69
2021/10/28 17:04:59;;;;;;;10.38;4.15;;;18.00;57.60;;;;;;5046525;28;20017;-69
2021/10/28 17:07:25;;;;;;;10.30;4.65;;;17.90;57.70;;;;;;5049364;28;20462;-73
2021/10/28 17:09:52;;;;;;;9.20;4.15;;;17.90;58.00;;;;;;5041339;28;20021;-74
2021/10/28 17:12:19;;;;;;;9.70;5.10;;;17.80;58.30;;;;;;5035484;28;20061;-73
2021/10/28 17:14:45;;;;;;;6.28;3.67;;;17.70;58.40;;;;;;5043918;28;20029;-73
2021/10/28 17:17:11;;;;;;;8.63;3.83;;;17.60;58.80;;;;;;5049071;28;20409;-74
2021/10/28 17:19:37;;;;;;;6.72;3.65;;;17.50;59.00;;;;;;5048840;28;20377;-74
2021/10/28 17:22:04;;;;;;;8.20;4.40;;;17.50;59.20;;;;;;5047531;28;20028;-73
2021/10/28 17:24:45;;;;;;;8.32;4.50;;;17.50;59.40;;;;;;5049889;28;20494;-74
2021/10/28 17:27:12;;;;;;;8.60;5.22;;;17.40;59.60;;;;;;5047271;28;20041;-72
2021/10/28 17:29:39;;;;;;;10.23;4.88;;;17.30;60.80;;;;;;5045915;28;20134;-72
2021/10/28 17:32:06;;;;;;;9.38;5.00;;;17.30;60.10;;;;;;5046567;28;20036;-72
2021/10/28 17:34:34;;;;;;;9.77;5.22;;;17.20;60.30;;;;;;5049074;28;20072;-72
2021/10/28 17:37:01;;;;;;;11.23;5.30;;;17.20;60.50;;;;;;5046714;28;20037;-73
2021/10/28 17:39:29;;;;;;;9.25;4.90;;;17.10;60.60;;;;;;5049773;28;20032;-72
2021/10/28 17:41:59;;;;;;;8.82;4.72;;;17.10;61.10;;;;;;5042534;28;20032;-71
2021/10/28 17:44:49;;;;;;;8.55;4.68;;;17.00;61.30;;;;;;5045765;28;20038;-71
2021/10/28 17:47:16;;;;;;;11.20;4.70;;;16.90;61.70;;;;;;5044721;28;20115;-72
2021/10/28 17:49:44;;;;;;;9.52;4.50;;;16.80;62.10;;;;;;5034201;28;20370;-72
2021/10/28 17:52:10;;;;;;;13.07;4.50;;;16.80;62.50;;;;;;5047788;28;20091;-70
2021/10/28 17:54:36;;;;;;;9.80;4.93;;;16.70;62.60;;;;;;5037486;28;20069;-73
2021/10/28 17:57:07;;;;;;;10.48;4.68;;;16.70;63.30;;;;;;5024007;28;20049;-71
2021/10/28 17:59:34;;;;;;;10.07;5.13;;;16.60;63.60;;;;;;5030017;28;20025;-72
2021/10/28 18:02:00;;;;;;;9.15;5.35;;;16.60;63.80;;;;;;5044846;28;20049;-71
2021/10/28 18:04:26;;;;;;;10.52;5.78;;;16.50;64.10;;;;;;5036523;28;20069;-71
2021/10/28 18:06:53;;;;;;;10.23;5.90;;;16.40;64.30;;;;;;5034851;28;20091;-71
2021/10/28 18:09:23;;;;;;;11.65;5.40;;;16.40;64.60;;;;;;5044250;28;20078;-71
2021/10/28 18:11:54;;;;;;;10.20;6.72;;;16.30;64.90;;;;;;5047898;28;20037;-71
2021/10/28 18:14:22;;;;;;;15.50;7.47;;;16.30;65.10;;;;;;5046619;28;20021;-71
2021/10/28 18:16:48;;;;;;;11.82;7.47;;;16.20;65.00;;;;;;5044335;28;20059;-71
2021/10/28 18:19:13;;;;;;;13.57;7.20;;;16.20;65.20;;;;;;5046878;28;20408;-66
2021/10/28 18:21:44;;;;;;;12.77;6.68;;;16.10;65.40;;;;;;5046146;28;20033;-66
2021/10/28 18:24:14;;;;;;;12.27;6.38;;;16.10;65.70;;;;;;5047581;28;20040;-66
2021/10/28 18:26:40;;;;;;;10.98;6.65;;;16.00;65.90;;;;;;5042371;28;20451;-66
2021/10/28 18:29:07;;;;;;;11.35;7.00;;;16.00;65.90;;;;;;5037986;28;20044;-66
2021/10/28 18:31:33;;;;;;;11.93;6.40;;;16.00;66.10;;;;;;5042069;28;20047;-66
2021/10/28 18:34:01;;;;;;;10.63;6.10;;;15.90;66.50;;;;;;5031142;28;20471;-66
2021/10/28 18:36:30;;;;;;;12.40;5.88;;;15.80;66.70;;;;;;5048971;28;20028;-66
2021/10/28 18:38:57;;;;;;;11.45;6.45;;;15.80;67.00;;;;;;5041188;28;20044;-66
2021/10/28 18:41:23;;;;;;;12.93;6.45;;;15.80;67.20;;;;;;5041330;28;20024;-66
2021/10/28 18:43:50;;;;;;;11.30;6.40;;;15.70;67.30;;;;;;5045099;28;20466;-66
2021/10/28 18:46:21;;;;;;;14.05;6.07;;;15.70;67.30;;;;;;5034645;28;20037;-66
2021/10/28 18:48:52;;;;;;;12.93;6.10;;;15.60;67.60;;;;;;5036933;28;20033;-66
2021/10/28 18:51:20;;;;;;;10.18;5.13;;;15.60;68.60;;;;;;5037417;28;20025;-66
2021/10/28 18:53:47;;;;;;;10.48;4.72;;;15.50;68.10;;;;;;5035536;28;20111;-66
2021/10/28 18:56:13;;;;;;;10.57;4.50;;;15.50;68.80;;;;;;5045363;28;20017;-66
2021/10/28 18:58:40;;;;;;;8.45;4.65;;;15.40;69.10;;;;;;5033176;28;20033;-66
2021/10/28 19:01:06;;;;;;;10.07;5.85;;;15.40;69.50;;;;;;5046324;28;20024;-66
2021/10/28 19:03:33;;;;;;;12.73;3.70;;;15.40;69.60;;;;;;5044925;28;20045;-66
2021/10/28 19:05:59;;;;;;;10.27;4.97;;;15.40;70.30;;;;;;5043848;28;20036;-66
2021/10/28 19:08:25;;;;;;;9.13;4.65;;;15.40;70.50;;;;;;5044649;28;20471;-66
2021/10/28 19:10:52;;;;;;;9.45;4.65;;;15.30;70.70;;;;;;5039111;28;20541;-66
2021/10/28 19:13:18;;;;;;;10.45;5.10;;;15.30;71.00;;;;;;5047327;28;20044;-67
2021/10/28 19:15:44;;;;;;;10.63;5.22;;;15.30;71.50;;;;;;5037023;28;20026;-66
2021/10/28 19:18:11;;;;;;;11.35;6.15;;;15.30;71.70;;;;;;5044009;28;20025;-66
2021/10/28 19:20:37;;;;;;;12.50;6.18;;;15.30;71.80;;;;;;5048438;28;20029;-66
2021/10/28 19:23:05;;;;;;;10.38;5.38;;;15.20;72.10;;;;;;5051265;28;20013;-66
2021/10/28 19:25:31;;;;;;;12.75;5.18;;;15.20;72.50;;;;;;5049182;28;20037;-66
2021/10/28 19:27:58;;;;;;;9.27;5.82;;;15.20;72.80;;;;;;5052298;28;20056;-66
2021/10/28 19:30:29;;;;;;;14.15;7.30;;;15.10;73.00;;;;;;5051286;28;20061;-66
2021/10/28 19:33:05;;;;;;;10.18;4.93;;;15.10;73.20;;;;;;5045201;28;20040;-66
2021/10/28 19:35:32;;;;;;;9.38;5.07;;;15.10;73.50;;;;;;5045757;28;20052;-66
2021/10/28 19:38:18;;;;;;;15.02;7.07;;;15.10;74.20;;;;;;5052319;28;20098;-66
2021/10/28 19:48:29;;;;;;;14.32;7.03;;;15.00;75.90;;;;;;5046192;28;20029;-66
2021/10/28 19:50:56;;;;;;;11.27;6.47;;;15.00;76.10;;;;;;5050305;28;20033;-66
2021/10/28 19:53:22;;;;;;;14.10;7.60;;;15.00;76.60;;;;;;5052662;28;20043;-66
2021/10/28 19:55:49;;;;;;;11.27;5.38;;;15.00;76.80;;;;;;5052359;28;20032;-66
2021/10/28 19:58:24;;;;;;;13.38;8.10;;;14.90;76.90;;;;;;5052013;28;20083;-66
2021/10/28 20:00:59;;;;;;;12.55;5.43;;;15.00;77.40;;;;;;5038851;28;20469;-66
2021/10/28 20:04:11;;;;;;;12.60;7.30;;;14.90;77.80;;;;;;5041335;28;20037;-66
2021/10/28 20:22:10;;;;;;;14.35;7.07;;;14.80;79.00;;;;;;5053282;28;20074;-66
2021/10/28 20:24:36;;;;;;;16.98;8.90;;;14.80;79.10;;;;;;5065386;28;20024;-67
2021/10/28 20:27:02;;;;;;;15.70;8.52;;;14.80;79.20;;;;;;5053999;28;20091;-66
2021/10/28 20:29:28;;;;;;;14.23;6.47;;;14.70;79.00;;;;;;5048661;28;20071;-66
2021/10/28 20:31:53;;;;;;;15.65;7.40;;;14.70;79.10;;;;;;5039884;28;20021;-66
2021/10/28 20:35:05;;;;;;;15.07;8.25;;;14.70;79.10;;;;;;5042283;28;20041;-66
2021/10/28 20:37:12;;;;;;;16.95;7.78;;;14.70;79.10;;;;;;5048761;28;20359;-66
2021/10/28 20:39:40;;;;;;;14.00;6.10;;;14.70;79.00;;;;;;5052452;28;20404;-66
2021/10/28 20:42:08;;;;;;;16.48;8.00;;;14.70;79.10;;;;;;5030701;28;20091;-67
2021/10/28 20:44:35;;;;;;;15.25;8.32;;;14.70;79.10;;;;;;5048425;28;20032;-67
2021/10/28 20:47:01;;;;;;;19.33;8.63;;;14.70;79.10;;;;;;5049558;28;20559;-66
2021/10/28 20:49:28;;;;;;;16.05;9.57;;;14.70;79.00;;;;;;5049888;28;20029;-66
2021/10/28 20:51:54;;;;;;;24.23;9.60;;;14.60;78.90;;;;;;5051218;28;20032;-66
2021/10/28 20:54:23;;;;;;;13.02;7.13;;;14.60;78.80;;;;;;5048470;28;20025;-66
2021/10/28 20:56:55;;;;;;;15.10;9.00;;;14.60;79.10;;;;;;5050044;28;20025;-66
2021/10/28 20:59:20;;;;;;;16.92;8.75;;;14.60;79.00;;;;;;5049930;28;20028;-66
2021/10/28 21:01:46;;;;;;;20.48;7.55;;;14.60;79.20;;;;;;5050755;28;20399;-65
2021/10/28 21:04:14;;;;;;;17.20;6.82;;;14.50;79.10;;;;;;5050421;28;20419;-65
2021/10/28 21:06:40;;;;;;;12.23;7.60;;;14.60;79.30;;;;;;5043237;28;20109;-65
2021/10/28 21:09:06;;;;;;;16.05;8.30;;;14.50;79.30;;;;;;5049904;28;20124;-66
2021/10/28 21:11:36;;;;;;;15.63;6.78;;;14.50;79.10;;;;;;5047134;28;20017;-66
2021/10/28 21:14:01;;;;;;;17.80;8.37;;;14.50;79.30;;;;;;5048611;28;20052;-65
2021/10/28 21:16:27;;;;;;;16.20;7.78;;;14.50;79.30;;;;;;5049117;28;20052;-65
2021/10/28 21:18:53;;;;;;;12.13;7.70;;;14.50;79.30;;;;;;5047530;28;20037;-65
2021/10/28 21:21:19;;;;;;;14.52;7.63;;;14.50;79.40;;;;;;5049825;28;20025;-66
2021/10/28 21:23:45;;;;;;;15.45;7.05;;;14.50;79.30;;;;;;5044286;28;20033;-66
2021/10/28 21:26:12;;;;;;;16.77;8.68;;;14.40;79.30;;;;;;5049302;28;20376;-65
2021/10/28 21:28:38;;;;;;;18.35;9.80;;;14.40;79.20;;;;;;5050190;28;20052;-65
2021/10/28 21:31:05;;;;;;;17.17;8.90;;;14.40;79.00;;;;;;5034936;28;20092;-65
2021/10/28 21:33:31;;;;;;;18.80;9.02;;;14.40;78.90;;;;;;5047620;28;20029;-66
2021/10/28 21:35:57;;;;;;;16.70;9.18;;;14.40;78.90;;;;;;5050479;28;20067;-66
2021/10/28 21:38:23;;;;;;;21.50;9.55;;;14.40;78.60;;;;;;5047206;28;20477;-66
2021/10/28 21:40:49;;;;;;;14.30;7.68;;;14.40;78.50;;;;;;5054992;28;20017;-65
2021/10/28 21:43:15;;;;;;;14.73;8.45;;;14.40;78.40;;;;;;5040578;28;20021;-65
2021/10/28 21:45:46;;;;;;;17.98;8.38;;;14.40;78.20;;;;;;5051328;28;20035;-66
2021/10/28 21:48:12;;;;;;;15.00;8.23;;;14.40;78.00;;;;;;5049627;28;20131;-65
2021/10/28 21:50:39;;;;;;;12.88;6.63;;;14.40;77.90;;;;;;5050141;28;20488;-66
2021/10/28 21:53:12;;;;;;;22.45;8.65;;;14.40;77.60;;;;;;5045710;28;20025;-65
2021/10/28 22:01:00;;;;;;;18.92;8.40;;;14.40;76.90;;;;;;5050824;28;20032;-65
2021/10/28 22:04:02;;;;;;;16.23;7.93;;;14.40;76.70;;;;;;5051334;28;20025;-65